sensor_id;sensor_type;location;lat;lon;timestamp;pressure;altitude;pressure_sealevel;temperature;humidity
7930;BME280;4010;42.698;23.124;2024-03-23T00:52:44;118349.16;;;-140.64;91.03
7930;BME280;4010;42.698;23.124;2024-03-23T00:55:11;118349.16;;;-140.64;90.90
7930;BME280;4010;42.698;23.124;2024-03-23T00:57:37;118349.16;;;-140.64;90.79
7930;BME280;4010;42.698;23.124;2024-03-23T01:00:06;118349.16;;;-140.64;90.20
7930;BME280;4010;42.698;23.124;2024-03-23T01:02:31;118349.16;;;-140.64;90.32
7930;BME280;4010;42.698;23.124;2024-03-23T01:04:58;118349.16;;;-140.64;90.20
7930;BME280;4010;42.698;23.124;2024-03-23T01:07:24;118349.16;;;-140.64;89.86
7930;BME280;4010;42.698;23.124;2024-03-23T01:09:52;118349.16;;;-140.64;90.05
7930;BME280;4010;42.698;23.124;2024-03-23T01:12:18;118349.16;;;-140.64;89.24
7930;BME280;4010;42.698;23.124;2024-03-23T01:14:45;118349.16;;;-140.64;89.01
7930;BME280;4010;42.698;23.124;2024-03-23T01:17:10;118349.16;;;-140.64;89.16
7930;BME280;4010;42.698;23.124;2024-03-23T01:19:37;118349.16;;;-140.64;88.66
7930;BME280;4010;42.698;23.124;2024-03-23T01:22:04;118349.16;;;-140.64;88.93
7930;BME280;4010;42.698;23.124;2024-03-23T01:24:31;118349.16;;;-140.64;89.17
7930;BME280;4010;42.698;23.124;2024-03-23T01:26:58;118349.16;;;-140.64;89.10
7930;BME280;4010;42.698;23.124;2024-03-23T01:29:25;118349.16;;;-140.64;89.08
7930;BME280;4010;42.698;23.124;2024-03-23T01:31:50;118349.16;;;-140.64;89.24
7930;BME280;4010;42.698;23.124;2024-03-23T01:34:17;118349.16;;;-140.64;88.67
7930;BME280;4010;42.698;23.124;2024-03-23T01:36:43;118349.16;;;-140.64;89.15
7930;BME280;4010;42.698;23.124;2024-03-23T01:39:11;118349.16;;;-140.64;89.36
7930;BME280;4010;42.698;23.124;2024-03-23T01:41:37;118349.16;;;-140.64;89.65
7930;BME280;4010;42.698;23.124;2024-03-23T01:44:06;118349.16;;;-140.64;90.15
7930;BME280;4010;42.698;23.124;2024-03-23T01:46:32;118349.16;;;-140.64;90.20
7930;BME280;4010;42.698;23.124;2024-03-23T01:48:59;118349.16;;;-140.64;90.06
7930;BME280;4010;42.698;23.124;2024-03-23T01:51:25;118349.16;;;-140.64;90.06
7930;BME280;4010;42.698;23.124;2024-03-23T01:53:53;118349.16;;;-140.64;90.06
7930;BME280;4010;42.698;23.124;2024-03-23T01:56:19;118349.16;;;-140.64;89.37
7930;BME280;4010;42.698;23.124;2024-03-23T01:58:46;118349.16;;;-140.64;88.72
7930;BME280;4010;42.698;23.124;2024-03-23T02:01:13;118349.16;;;-140.64;88.82
7930;BME280;4010;42.698;23.124;2024-03-23T02:03:40;118349.16;;;-140.64;89.01
7930;BME280;4010;42.698;23.124;2024-03-23T02:06:06;118349.16;;;-140.64;89.02
7930;BME280;4010;42.698;23.124;2024-03-23T02:08:34;118349.16;;;-140.64;87.76
7930;BME280;4010;42.698;23.124;2024-03-23T02:11:00;118349.16;;;-140.64;88.04
7930;BME280;4010;42.698;23.124;2024-03-23T02:13:26;118349.16;;;-140.64;88.67
7930;BME280;4010;42.698;23.124;2024-03-23T02:15:52;118349.16;;;-140.64;89.19
7930;BME280;4010;42.698;23.124;2024-03-23T02:18:20;118349.16;;;-140.64;89.75
7930;BME280;4010;42.698;23.124;2024-03-23T02:20:46;118349.16;;;-140.64;88.92
7930;BME280;4010;42.698;23.124;2024-03-23T02:23:14;118349.16;;;-140.64;88.82
7930;BME280;4010;42.698;23.124;2024-03-23T02:25:40;118349.16;;;-140.64;89.00
7930;BME280;4010;42.698;23.124;2024-03-23T02:28:07;118349.16;;;-140.64;89.43
7930;BME280;4010;42.698;23.124;2024-03-23T02:30:33;118349.16;;;-140.64;89.40
7930;BME280;4010;42.698;23.124;2024-03-23T02:33:00;118349.16;;;-140.64;88.67
7930;BME280;4010;42.698;23.124;2024-03-23T02:35:26;118349.16;;;-140.64;88.13
7930;BME280;4010;42.698;23.124;2024-03-23T02:37:52;118349.16;;;-140.64;87.68
7930;BME280;4010;42.698;23.124;2024-03-23T02:40:20;118349.16;;;-140.64;88.05
7930;BME280;4010;42.698;23.124;2024-03-23T02:42:46;118349.16;;;-140.64;89.08
7930;BME280;4010;42.698;23.124;2024-03-23T02:45:12;118349.16;;;-140.64;88.98
7930;BME280;4010;42.698;23.124;2024-03-23T02:47:39;118349.16;;;-140.64;88.75
7930;BME280;4010;42.698;23.124;2024-03-23T02:50:05;118349.16;;;-140.64;88.79
7930;BME280;4010;42.698;23.124;2024-03-23T02:52:32;118349.16;;;-140.64;89.09
7930;BME280;4010;42.698;23.124;2024-03-23T02:54:58;118349.16;;;-140.64;89.50
7930;BME280;4010;42.698;23.124;2024-03-23T02:57:26;118349.16;;;-140.64;90.39
7930;BME280;4010;42.698;23.124;2024-03-23T02:59:51;118349.16;;;-140.64;90.84
7930;BME280;4010;42.698;23.124;2024-03-23T03:02:18;118349.16;;;-140.64;90.18
7930;BME280;4010;42.698;23.124;2024-03-23T03:04:44;118349.16;;;-140.64;90.53
7930;BME280;4010;42.698;23.124;2024-03-23T03:07:10;118349.16;;;-140.64;90.50
7930;BME280;4010;42.698;23.124;2024-03-23T03:09:36;118349.16;;;-140.64;90.26
7930;BME280;4010;42.698;23.124;2024-03-23T03:12:04;118349.16;;;-140.64;90.47
7930;BME280;4010;42.698;23.124;2024-03-23T03:14:31;118349.16;;;-140.64;90.34
7930;BME280;4010;42.698;23.124;2024-03-23T03:16:58;118349.16;;;-140.64;90.19
7930;BME280;4010;42.698;23.124;2024-03-23T03:19:24;118349.16;;;-140.64;90.36
7930;BME280;4010;42.698;23.124;2024-03-23T03:21:50;118349.16;;;-140.64;90.96
7930;BME280;4010;42.698;23.124;2024-03-23T03:24:16;118349.16;;;-140.64;91.02
7930;BME280;4010;42.698;23.124;2024-03-23T03:26:43;118349.16;;;-140.64;91.12
7930;BME280;4010;42.698;23.124;2024-03-23T03:29:09;118349.16;;;-140.64;91.26
7930;BME280;4010;42.698;23.124;2024-03-23T03:31:37;118349.16;;;-140.64;91.56
7930;BME280;4010;42.698;23.124;2024-03-23T03:34:02;118349.16;;;-140.64;91.65
7930;BME280;4010;42.698;23.124;2024-03-23T03:36:29;118349.16;;;-140.64;91.83
7930;BME280;4010;42.698;23.124;2024-03-23T03:38:55;118349.16;;;-140.64;91.33
7930;BME280;4010;42.698;23.124;2024-03-23T03:41:21;118349.16;;;-140.64;92.01
7930;BME280;4010;42.698;23.124;2024-03-23T03:43:47;118349.16;;;-140.64;93.89
7930;BME280;4010;42.698;23.124;2024-03-23T03:46:14;118349.16;;;-140.64;95.20
7930;BME280;4010;42.698;23.124;2024-03-23T03:48:41;118349.16;;;-140.64;95.27
7930;BME280;4010;42.698;23.124;2024-03-23T03:51:10;118349.16;;;-140.64;94.66
7930;BME280;4010;42.698;23.124;2024-03-23T03:53:36;118349.16;;;-140.64;93.74
7930;BME280;4010;42.698;23.124;2024-03-23T03:56:03;118349.16;;;-140.64;93.11
7930;BME280;4010;42.698;23.124;2024-03-23T03:58:29;118349.16;;;-140.64;93.17
7930;BME280;4010;42.698;23.124;2024-03-23T04:00:55;118349.16;;;-140.64;92.65
7930;BME280;4010;42.698;23.124;2024-03-23T04:03:21;118349.16;;;-140.64;92.95
7930;BME280;4010;42.698;23.124;2024-03-23T04:05:52;118349.16;;;-140.64;94.33
7930;BME280;4010;42.698;23.124;2024-03-23T04:08:18;118349.16;;;-140.64;94.47
7930;BME280;4010;42.698;23.124;2024-03-23T04:10:44;118349.16;;;-140.64;94.62
7930;BME280;4010;42.698;23.124;2024-03-23T04:13:11;118349.16;;;-140.64;94.11
7930;BME280;4010;42.698;23.124;2024-03-23T04:15:38;118349.16;;;-140.64;94.37
7930;BME280;4010;42.698;23.124;2024-03-23T04:18:04;118349.16;;;-140.64;94.17
7930;BME280;4010;42.698;23.124;2024-03-23T04:20:31;118349.16;;;-140.64;94.38
7930;BME280;4010;42.698;23.124;2024-03-23T04:22:59;118349.16;;;-140.64;94.93
7930;BME280;4010;42.698;23.124;2024-03-23T04:25:25;118349.16;;;-140.64;94.73
7930;BME280;4010;42.698;23.124;2024-03-23T04:27:51;118349.16;;;-140.64;95.15
7930;BME280;4010;42.698;23.124;2024-03-23T04:30:17;118349.16;;;-140.64;93.33
7930;BME280;4010;42.698;23.124;2024-03-23T04:32:44;118349.16;;;-140.64;93.58
7930;BME280;4010;42.698;23.124;2024-03-23T04:35:10;118349.16;;;-140.64;93.62
7930;BME280;4010;42.698;23.124;2024-03-23T04:37:38;118349.16;;;-140.64;93.79
7930;BME280;4010;42.698;23.124;2024-03-23T04:40:08;118349.16;;;-140.64;95.16
7930;BME280;4010;42.698;23.124;2024-03-23T04:42:36;118349.16;;;-140.64;95.57
7930;BME280;4010;42.698;23.124;2024-03-23T04:45:04;118349.16;;;-140.64;95.70
7930;BME280;4010;42.698;23.124;2024-03-23T04:47:31;118349.16;;;-140.64;94.65
7930;BME280;4010;42.698;23.124;2024-03-23T04:49:57;118349.16;;;-140.64;94.31
7930;BME280;4010;42.698;23.124;2024-03-23T04:52:23;118349.16;;;-140.64;94.76
7930;BME280;4010;42.698;23.124;2024-03-23T04:54:50;118349.16;;;-140.64;95.86
7930;BME280;4010;42.698;23.124;2024-03-23T04:57:17;118349.16;;;-140.64;96.11
7930;BME280;4010;42.698;23.124;2024-03-23T04:59:44;118349.16;;;-140.64;90.48
7930;BME280;4010;42.698;23.124;2024-03-23T05:02:09;118349.16;;;-140.64;82.71
7930;BME280;4010;42.698;23.124;2024-03-23T05:04:36;118349.16;;;-140.64;76.74
7930;BME280;4010;42.698;23.124;2024-03-23T05:07:02;118349.16;;;-140.64;72.84
7930;BME280;4010;42.698;23.124;2024-03-23T05:09:29;118349.16;;;-140.64;66.40
7930;BME280;4010;42.698;23.124;2024-03-23T05:11:55;118349.16;;;-140.64;58.41
7930;BME280;4010;42.698;23.124;2024-03-23T05:14:23;118349.16;;;-140.64;52.74
7930;BME280;4010;42.698;23.124;2024-03-23T05:16:50;118349.16;;;-140.64;46.87
7930;BME280;4010;42.698;23.124;2024-03-23T05:19:16;118349.16;;;-140.64;42.74
7930;BME280;4010;42.698;23.124;2024-03-23T05:21:42;118349.16;;;-140.64;41.05
7930;BME280;4010;42.698;23.124;2024-03-23T05:24:08;118349.16;;;-140.64;40.17
7930;BME280;4010;42.698;23.124;2024-03-23T05:26:35;118349.16;;;-140.64;38.16
7930;BME280;4010;42.698;23.124;2024-03-23T05:29:01;118349.16;;;-140.64;37.25
7930;BME280;4010;42.698;23.124;2024-03-23T05:31:30;118349.16;;;-140.64;36.00
7930;BME280;4010;42.698;23.124;2024-03-23T05:33:57;118349.16;;;-140.64;36.17
7930;BME280;4010;42.698;23.124;2024-03-23T05:36:23;118349.16;;;-140.64;36.27
7930;BME280;4010;42.698;23.124;2024-03-23T05:38:50;118349.16;;;-140.64;36.24
7930;BME280;4010;42.698;23.124;2024-03-23T05:41:16;118349.16;;;-140.64;35.47
7930;BME280;4010;42.698;23.124;2024-03-23T05:43:42;118349.16;;;-140.64;36.04
7930;BME280;4010;42.698;23.124;2024-03-23T05:46:09;118349.16;;;-140.64;37.59
7930;BME280;4010;42.698;23.124;2024-03-23T05:48:36;118349.16;;;-140.64;37.93
7930;BME280;4010;42.698;23.124;2024-03-23T05:51:03;118349.16;;;-140.64;40.42
7930;BME280;4010;42.698;23.124;2024-03-23T05:53:29;118349.16;;;-140.64;41.31
7930;BME280;4010;42.698;23.124;2024-03-23T05:56:00;118349.16;;;-140.64;44.34
7930;BME280;4010;42.698;23.124;2024-03-23T05:58:29;118349.16;;;-140.64;44.62
7930;BME280;4010;42.698;23.124;2024-03-23T06:00:57;118349.16;;;-140.64;43.59
7930;BME280;4010;42.698;23.124;2024-03-23T06:03:23;118349.16;;;-140.64;44.79
7930;BME280;4010;42.698;23.124;2024-03-23T06:05:52;118349.16;;;-140.64;46.05
7930;BME280;4010;42.698;23.124;2024-03-23T06:08:18;118349.16;;;-140.64;49.41
7930;BME280;4010;42.698;23.124;2024-03-23T06:10:45;118349.16;;;-140.64;58.82
7930;BME280;4010;42.698;23.124;2024-03-23T06:13:11;118349.16;;;-140.64;62.11
7930;BME280;4010;42.698;23.124;2024-03-23T06:15:38;118349.16;;;-140.64;62.41
7930;BME280;4010;42.698;23.124;2024-03-23T06:18:04;118349.16;;;-140.64;63.37
7930;BME280;4010;42.698;23.124;2024-03-23T06:20:33;118349.16;;;-140.64;64.12
7930;BME280;4010;42.698;23.124;2024-03-23T06:23:00;118349.16;;;-140.64;64.47
7930;BME280;4010;42.698;23.124;2024-03-23T06:25:27;118349.16;;;-140.64;67.72
7930;BME280;4010;42.698;23.124;2024-03-23T06:27:52;118349.16;;;-140.64;66.36
7930;BME280;4010;42.698;23.124;2024-03-23T06:30:19;118349.16;;;-140.64;63.66
7930;BME280;4010;42.698;23.124;2024-03-23T06:32:45;118349.16;;;-140.64;63.94
7930;BME280;4010;42.698;23.124;2024-03-23T06:35:11;118349.16;;;-140.64;65.04
7930;BME280;4010;42.698;23.124;2024-03-23T06:37:37;118349.16;;;-140.64;64.19
7930;BME280;4010;42.698;23.124;2024-03-23T06:40:08;118349.16;;;-140.64;64.03
7930;BME280;4010;42.698;23.124;2024-03-23T06:42:35;118349.16;;;-140.64;64.29
7930;BME280;4010;42.698;23.124;2024-03-23T06:45:01;118349.16;;;-140.64;64.13
7930;BME280;4010;42.698;23.124;2024-03-23T06:47:27;118349.16;;;-140.64;62.52
7930;BME280;4010;42.698;23.124;2024-03-23T06:49:54;118349.16;;;-140.64;63.16
7930;BME280;4010;42.698;23.124;2024-03-23T06:52:20;118349.16;;;-140.64;64.88
7930;BME280;4010;42.698;23.124;2024-03-23T06:54:46;118349.16;;;-140.64;63.08
7930;BME280;4010;42.698;23.124;2024-03-23T06:57:13;118349.16;;;-140.64;63.34
7930;BME280;4010;42.698;23.124;2024-03-23T06:59:40;118349.16;;;-140.64;62.09
7930;BME280;4010;42.698;23.124;2024-03-23T07:02:06;118349.16;;;-140.64;62.39
7930;BME280;4010;42.698;23.124;2024-03-23T07:04:34;118349.16;;;-140.64;61.46
7930;BME280;4010;42.698;23.124;2024-03-23T07:06:59;118349.16;;;-140.64;61.29
7930;BME280;4010;42.698;23.124;2024-03-23T07:09:27;118349.16;;;-140.64;61.16
7930;BME280;4010;42.698;23.124;2024-03-23T07:11:53;118349.16;;;-140.64;64.62
7930;BME280;4010;42.698;23.124;2024-03-23T07:14:21;118349.16;;;-140.64;59.71
7930;BME280;4010;42.698;23.124;2024-03-23T07:16:47;118349.16;;;-140.64;59.84
7930;BME280;4010;42.698;23.124;2024-03-23T07:19:15;118349.16;;;-140.64;58.13
7930;BME280;4010;42.698;23.124;2024-03-23T07:21:41;118349.16;;;-140.64;56.80
7930;BME280;4010;42.698;23.124;2024-03-23T07:24:08;118349.16;;;-140.64;54.29
7930;BME280;4010;42.698;23.124;2024-03-23T07:26:35;118349.16;;;-140.64;54.76
7930;BME280;4010;42.698;23.124;2024-03-23T07:29:00;118349.16;;;-140.64;54.54
7930;BME280;4010;42.698;23.124;2024-03-23T07:31:28;118349.16;;;-140.64;53.16
7930;BME280;4010;42.698;23.124;2024-03-23T07:33:54;118349.16;;;-140.64;54.97
7930;BME280;4010;42.698;23.124;2024-03-23T07:36:21;118349.16;;;-140.64;56.86
7930;BME280;4010;42.698;23.124;2024-03-23T07:38:47;118349.16;;;-140.64;57.12
7930;BME280;4010;42.698;23.124;2024-03-23T07:41:15;118349.16;;;-140.64;53.21
7930;BME280;4010;42.698;23.124;2024-03-23T07:43:43;118349.16;;;-140.64;53.87
7930;BME280;4010;42.698;23.124;2024-03-23T07:46:10;118349.16;;;-140.64;52.08
7930;BME280;4010;42.698;23.124;2024-03-23T07:48:39;118349.16;;;-140.64;51.96
7930;BME280;4010;42.698;23.124;2024-03-23T07:51:09;118349.16;;;-140.64;51.14
7930;BME280;4010;42.698;23.124;2024-03-23T07:53:36;118349.16;;;-140.64;51.89
7930;BME280;4010;42.698;23.124;2024-03-23T07:56:06;118349.16;;;-140.64;52.48
7930;BME280;4010;42.698;23.124;2024-03-23T07:58:32;118349.16;;;-140.64;51.08
7930;BME280;4010;42.698;23.124;2024-03-23T08:01:04;118349.16;;;-140.64;50.95
7930;BME280;4010;42.698;23.124;2024-03-23T08:03:30;118349.16;;;-140.64;50.01
7930;BME280;4010;42.698;23.124;2024-03-23T08:06:06;118349.16;;;-140.64;49.19
7930;BME280;4010;42.698;23.124;2024-03-23T08:08:32;118349.16;;;-140.64;49.67
7930;BME280;4010;42.698;23.124;2024-03-23T08:10:58;118349.16;;;-140.64;50.03
7930;BME280;4010;42.698;23.124;2024-03-23T08:13:24;118349.16;;;-140.64;50.95
7930;BME280;4010;42.698;23.124;2024-03-23T08:15:51;118349.16;;;-140.64;50.03
7930;BME280;4010;42.698;23.124;2024-03-23T08:18:16;118349.16;;;-140.64;52.05
7930;BME280;4010;42.698;23.124;2024-03-23T08:20:43;118349.16;;;-140.64;49.96
7930;BME280;4010;42.698;23.124;2024-03-23T08:23:10;118349.16;;;-140.64;52.59
7930;BME280;4010;42.698;23.124;2024-03-23T08:25:37;118349.16;;;-140.64;46.50
7930;BME280;4010;42.698;23.124;2024-03-23T08:28:03;118349.16;;;-140.64;45.76
7930;BME280;4010;42.698;23.124;2024-03-23T08:30:29;118349.16;;;-140.64;45.76
7930;BME280;4010;42.698;23.124;2024-03-23T08:32:55;118349.16;;;-140.64;46.83
7930;BME280;4010;42.698;23.124;2024-03-23T08:35:22;118349.16;;;-140.64;47.40
7930;BME280;4010;42.698;23.124;2024-03-23T08:37:48;118349.16;;;-140.64;46.12
7930;BME280;4010;42.698;23.124;2024-03-23T08:40:16;118349.16;;;-140.64;46.39
7930;BME280;4010;42.698;23.124;2024-03-23T08:42:41;118349.16;;;-140.64;44.32
7930;BME280;4010;42.698;23.124;2024-03-23T08:45:08;118349.16;;;-140.64;44.26
7930;BME280;4010;42.698;23.124;2024-03-23T08:47:34;118349.16;;;-140.64;42.00
7930;BME280;4010;42.698;23.124;2024-03-23T08:50:02;118349.16;;;-140.64;43.34
7930;BME280;4010;42.698;23.124;2024-03-23T08:52:27;118349.16;;;-140.64;42.98
7930;BME280;4010;42.698;23.124;2024-03-23T08:54:55;118349.16;;;-140.64;42.12
7930;BME280;4010;42.698;23.124;2024-03-23T08:57:22;118349.16;;;-140.64;43.00
7930;BME280;4010;42.698;23.124;2024-03-23T08:59:49;118349.16;;;-140.64;41.77
7930;BME280;4010;42.698;23.124;2024-03-23T09:02:15;118349.16;;;-140.64;40.47
7930;BME280;4010;42.698;23.124;2024-03-23T09:04:42;118349.16;;;-140.64;39.77
7930;BME280;4010;42.698;23.124;2024-03-23T09:07:07;118349.16;;;-140.64;40.15
7930;BME280;4010;42.698;23.124;2024-03-23T09:09:34;118349.16;;;-140.64;40.70
7930;BME280;4010;42.698;23.124;2024-03-23T09:12:00;118349.16;;;-140.64;41.14
7930;BME280;4010;42.698;23.124;2024-03-23T09:14:28;118349.16;;;-140.64;40.64
7930;BME280;4010;42.698;23.124;2024-03-23T09:16:55;118349.16;;;-140.64;37.85
7930;BME280;4010;42.698;23.124;2024-03-23T09:19:21;118349.16;;;-140.64;35.62
7930;BME280;4010;42.698;23.124;2024-03-23T09:21:47;118349.16;;;-140.64;35.88
7930;BME280;4010;42.698;23.124;2024-03-23T09:24:15;118349.16;;;-140.64;34.10
7930;BME280;4010;42.698;23.124;2024-03-23T09:26:41;118349.16;;;-140.64;34.78
7930;BME280;4010;42.698;23.124;2024-03-23T09:29:07;118349.16;;;-140.64;36.90
7930;BME280;4010;42.698;23.124;2024-03-23T09:31:34;118349.16;;;-140.64;33.47
7930;BME280;4010;42.698;23.124;2024-03-23T09:34:03;118349.16;;;-140.64;35.81
7930;BME280;4010;42.698;23.124;2024-03-23T09:36:29;118349.16;;;-140.64;33.00
7930;BME280;4010;42.698;23.124;2024-03-23T09:38:56;118349.16;;;-140.64;33.02
7930;BME280;4010;42.698;23.124;2024-03-23T09:41:21;118349.16;;;-140.64;32.78
7930;BME280;4010;42.698;23.124;2024-03-23T09:43:48;118349.16;;;-140.64;32.12
7930;BME280;4010;42.698;23.124;2024-03-23T09:46:15;118349.16;;;-140.64;32.59
7930;BME280;4010;42.698;23.124;2024-03-23T09:48:46;118349.16;;;-140.64;31.85
7930;BME280;4010;42.698;23.124;2024-03-23T09:51:12;118349.16;;;-140.64;32.54
7930;BME280;4010;42.698;23.124;2024-03-23T09:53:39;118349.16;;;-140.64;31.85
7930;BME280;4010;42.698;23.124;2024-03-23T09:56:04;118349.16;;;-140.64;30.44
7930;BME280;4010;42.698;23.124;2024-03-23T09:58:31;118349.16;;;-140.64;31.87
7930;BME280;4010;42.698;23.124;2024-03-23T10:00:57;118349.16;;;-140.64;31.48
7930;BME280;4010;42.698;23.124;2024-03-23T10:03:24;118349.16;;;-140.64;29.60
7930;BME280;4010;42.698;23.124;2024-03-23T10:06:02;118349.16;;;-140.64;30.30
7930;BME280;4010;42.698;23.124;2024-03-23T10:08:28;118349.16;;;-140.64;29.76
7930;BME280;4010;42.698;23.124;2024-03-23T10:10:55;118349.16;;;-140.64;29.45
7930;BME280;4010;42.698;23.124;2024-03-23T10:13:24;118349.16;;;-140.64;31.52
7930;BME280;4010;42.698;23.124;2024-03-23T10:15:56;118349.16;;;-140.64;30.20
7930;BME280;4010;42.698;23.124;2024-03-23T10:18:22;118349.16;;;-140.64;30.09
7930;BME280;4010;42.698;23.124;2024-03-23T10:20:52;118349.16;;;-140.64;29.74
7930;BME280;4010;42.698;23.124;2024-03-23T10:23:27;118349.16;;;-140.64;29.62
7930;BME280;4010;42.698;23.124;2024-03-23T10:25:54;118349.16;;;-140.64;31.29
7930;BME280;4010;42.698;23.124;2024-03-23T10:28:19;118349.16;;;-140.64;31.51
7930;BME280;4010;42.698;23.124;2024-03-23T10:30:46;118349.16;;;-140.64;30.88
7930;BME280;4010;42.698;23.124;2024-03-23T10:33:12;118349.16;;;-140.64;29.90
7930;BME280;4010;42.698;23.124;2024-03-23T10:35:40;118349.16;;;-140.64;30.48
7930;BME280;4010;42.698;23.124;2024-03-23T10:38:07;118349.16;;;-140.64;28.84
7930;BME280;4010;42.698;23.124;2024-03-23T10:40:36;118349.16;;;-140.64;31.96
7930;BME280;4010;42.698;23.124;2024-03-23T10:43:03;118349.16;;;-140.64;31.23
7930;BME280;4010;42.698;23.124;2024-03-23T10:45:30;118349.16;;;-140.64;29.45
7930;BME280;4010;42.698;23.124;2024-03-23T10:47:56;118349.16;;;-140.64;29.32
7930;BME280;4010;42.698;23.124;2024-03-23T10:50:23;118349.16;;;-140.64;29.44
7930;BME280;4010;42.698;23.124;2024-03-23T10:52:48;118349.16;;;-140.64;30.06
7930;BME280;4010;42.698;23.124;2024-03-23T10:55:17;118349.16;;;-140.64;30.12
7930;BME280;4010;42.698;23.124;2024-03-23T10:57:49;118349.16;;;-140.64;29.56
7930;BME280;4010;42.698;23.124;2024-03-23T11:00:18;118349.16;;;-140.64;29.63
7930;BME280;4010;42.698;23.124;2024-03-23T11:02:44;118349.16;;;-140.64;30.58
7930;BME280;4010;42.698;23.124;2024-03-23T11:05:29;118349.16;;;-140.64;28.97
7930;BME280;4010;42.698;23.124;2024-03-23T11:07:55;118349.16;;;-140.64;29.89
7930;BME280;4010;42.698;23.124;2024-03-23T11:10:25;118349.16;;;-140.64;30.25
7930;BME280;4010;42.698;23.124;2024-03-23T11:12:53;118349.16;;;-140.64;31.02
7930;BME280;4010;42.698;23.124;2024-03-23T11:15:20;118349.16;;;-140.64;29.49
7930;BME280;4010;42.698;23.124;2024-03-23T11:18:04;118349.16;;;-140.64;27.75
7930;BME280;4010;42.698;23.124;2024-03-23T11:20:31;118349.16;;;-140.64;29.24
7930;BME280;4010;42.698;23.124;2024-03-23T11:22:57;118349.16;;;-140.64;29.93
7930;BME280;4010;42.698;23.124;2024-03-23T11:25:25;118349.16;;;-140.64;28.66
7930;BME280;4010;42.698;23.124;2024-03-23T11:27:53;118349.16;;;-140.64;28.39
7930;BME280;4010;42.698;23.124;2024-03-23T11:30:21;118349.16;;;-140.64;28.24
7930;BME280;4010;42.698;23.124;2024-03-23T11:32:48;118349.16;;;-140.64;29.23
7930;BME280;4010;42.698;23.124;2024-03-23T11:35:25;118349.16;;;-140.64;29.44
7930;BME280;4010;42.698;23.124;2024-03-23T11:38:04;118349.16;;;-140.64;28.87
7930;BME280;4010;42.698;23.124;2024-03-23T11:40:32;118349.16;;;-140.64;27.48
7930;BME280;4010;42.698;23.124;2024-03-23T11:43:00;118349.16;;;-140.64;28.19
7930;BME280;4010;42.698;23.124;2024-03-23T11:45:27;118349.16;;;-140.64;27.63
7930;BME280;4010;42.698;23.124;2024-03-23T11:48:05;118349.16;;;-140.64;28.25
7930;BME280;4010;42.698;23.124;2024-03-23T11:50:32;118349.16;;;-140.64;27.27
7930;BME280;4010;42.698;23.124;2024-03-23T11:53:23;118349.16;;;-140.64;27.41
7930;BME280;4010;42.698;23.124;2024-03-23T11:55:51;118349.16;;;-140.64;26.89
7930;BME280;4010;42.698;23.124;2024-03-23T11:58:20;118349.16;;;-140.64;26.55
7930;BME280;4010;42.698;23.124;2024-03-23T12:00:51;118349.16;;;-140.64;26.85
7930;BME280;4010;42.698;23.124;2024-03-23T12:03:17;118349.16;;;-140.64;26.17
7930;BME280;4010;42.698;23.124;2024-03-23T12:05:48;118349.16;;;-140.64;26.45
7930;BME280;4010;42.698;23.124;2024-03-23T12:08:16;118349.16;;;-140.64;27.31
7930;BME280;4010;42.698;23.124;2024-03-23T12:10:44;118349.16;;;-140.64;26.29
7930;BME280;4010;42.698;23.124;2024-03-23T12:13:10;118349.16;;;-140.64;26.90
7930;BME280;4010;42.698;23.124;2024-03-23T12:15:39;118349.16;;;-140.64;26.24
7930;BME280;4010;42.698;23.124;2024-03-23T12:18:07;118349.16;;;-140.64;26.42
7930;BME280;4010;42.698;23.124;2024-03-23T12:20:34;118349.16;;;-140.64;26.21
7930;BME280;4010;42.698;23.124;2024-03-23T12:23:07;118349.16;;;-140.64;26.49
7930;BME280;4010;42.698;23.124;2024-03-23T12:25:34;118349.16;;;-140.64;26.31
7930;BME280;4010;42.698;23.124;2024-03-23T12:28:00;118349.16;;;-140.64;26.24
7930;BME280;4010;42.698;23.124;2024-03-23T12:30:27;118349.16;;;-140.64;26.96
7930;BME280;4010;42.698;23.124;2024-03-23T12:32:54;118349.16;;;-140.64;25.79
7930;BME280;4010;42.698;23.124;2024-03-23T12:35:21;118349.16;;;-140.64;26.26
7930;BME280;4010;42.698;23.124;2024-03-23T12:37:46;118349.16;;;-140.64;26.82
7930;BME280;4010;42.698;23.124;2024-03-23T12:40:13;118349.16;;;-140.64;25.96
7930;BME280;4010;42.698;23.124;2024-03-23T12:42:39;118349.16;;;-140.64;26.74
7930;BME280;4010;42.698;23.124;2024-03-23T12:45:06;118349.16;;;-140.64;25.38
7930;BME280;4010;42.698;23.124;2024-03-23T12:47:32;118349.16;;;-140.64;27.71
7930;BME280;4010;42.698;23.124;2024-03-23T12:50:00;118349.16;;;-140.64;26.82
7930;BME280;4010;42.698;23.124;2024-03-23T12:52:26;118349.16;;;-140.64;26.08
7930;BME280;4010;42.698;23.124;2024-03-23T12:54:54;118349.16;;;-140.64;27.23
7930;BME280;4010;42.698;23.124;2024-03-23T12:57:22;118349.16;;;-140.64;27.24
7930;BME280;4010;42.698;23.124;2024-03-23T12:59:49;118349.16;;;-140.64;25.92
7930;BME280;4010;42.698;23.124;2024-03-23T13:02:17;118349.16;;;-140.64;27.29
7930;BME280;4010;42.698;23.124;2024-03-23T13:04:44;118349.16;;;-140.64;27.30
7930;BME280;4010;42.698;23.124;2024-03-23T13:07:11;118349.16;;;-140.64;27.71
7930;BME280;4010;42.698;23.124;2024-03-23T13:09:38;118349.16;;;-140.64;27.47
7930;BME280;4010;42.698;23.124;2024-03-23T13:12:04;118349.16;;;-140.64;28.28
7930;BME280;4010;42.698;23.124;2024-03-23T13:14:30;118349.16;;;-140.64;27.62
7930;BME280;4010;42.698;23.124;2024-03-23T13:16:56;118349.16;;;-140.64;27.00
7930;BME280;4010;42.698;23.124;2024-03-23T13:19:23;118349.16;;;-140.64;27.11
7930;BME280;4010;42.698;23.124;2024-03-23T13:21:52;118349.16;;;-140.64;27.55
7930;BME280;4010;42.698;23.124;2024-03-23T13:24:23;118349.16;;;-140.64;27.01
7930;BME280;4010;42.698;23.124;2024-03-23T13:26:49;118349.16;;;-140.64;28.29
7930;BME280;4010;42.698;23.124;2024-03-23T13:29:17;118349.16;;;-140.64;28.32
7930;BME280;4010;42.698;23.124;2024-03-23T13:31:42;118349.16;;;-140.64;28.53